Aristes, Pennsylvania
Current Conditions -  °F | °C
As of 5:15 AM on Saturday 20 Dec 2014 (Local Time) from KHZL Reporting Station
Overcast Overcast  
Wind Chill: 22°   Ceiling: 1600
Heat Index: 28°   Visibility: 10mi
Dew Point: 21°   Wind: 6mph
Humidity: 74%   Direction: 320°NW
Pressure: 30.19"   Gusts: NA
Location:  40.82°N, 76.34°W
Report Text: KHZL 201015Z AUTO 32005KT 10SM OVC016 M02/M06 A3019 RMK AO2
Loading
Personal Weather Stations






























Interactive Weather Map New forecast layout! Learn more

10-Day Weather Forecast

Advertisements
Track Severe Weather on mobile